createdAt,value
2022-09-12T00:01:10.172Z,16.40
2022-09-12T00:03:39.398Z,16.40
2022-09-12T00:06:13.262Z,16.30
2022-09-12T00:08:42.597Z,16.30
2022-09-12T00:11:12.642Z,16.30
2022-09-12T00:13:42.913Z,16.30
2022-09-12T00:16:17.213Z,16.40
2022-09-12T00:18:47.220Z,16.30
2022-09-12T00:21:16.134Z,16.30
2022-09-12T00:23:49.250Z,16.30
2022-09-12T00:26:18.587Z,16.30
2022-09-12T00:28:47.281Z,16.30
2022-09-12T00:31:18.027Z,16.20
2022-09-12T00:33:46.600Z,16.20
2022-09-12T00:36:17.157Z,16.20
2022-09-12T00:38:47.313Z,16.10
2022-09-12T00:41:18.965Z,16.20
2022-09-12T00:43:48.988Z,16.10
2022-09-12T00:46:30.123Z,16.10
2022-09-12T00:49:01.604Z,16.00
2022-09-12T00:51:33.077Z,16.00
2022-09-12T00:54:07.395Z,16.00
2022-09-12T00:56:36.502Z,16.00
2022-09-12T00:59:14.065Z,16.00
2022-09-12T01:01:44.127Z,16.10
2022-09-12T01:04:13.422Z,16.00
2022-09-12T01:06:43.757Z,16.00
2022-09-12T01:09:18.328Z,15.90
2022-09-12T01:11:48.541Z,16.00
2022-09-12T01:14:17.901Z,15.90
2022-09-12T01:16:46.767Z,15.90
2022-09-12T01:19:36.045Z,15.90
2022-09-12T01:22:19.416Z,15.90
2022-09-12T01:24:56.933Z,15.90
2022-09-12T01:27:41.356Z,15.90
2022-09-12T01:30:23.794Z,15.90
2022-09-12T01:33:07.868Z,15.90
2022-09-12T01:35:46.526Z,15.80
2022-09-12T01:38:26.345Z,15.80
2022-09-12T01:41:06.601Z,15.90
2022-09-12T01:43:41.886Z,15.80
2022-09-12T01:46:17.637Z,15.80
2022-09-12T01:48:52.416Z,15.80
2022-09-12T01:51:24.429Z,15.80
2022-09-12T01:53:55.650Z,15.80
2022-09-12T01:56:27.077Z,15.80
2022-09-12T01:59:02.620Z,15.80
2022-09-12T02:01:34.541Z,15.80
2022-09-12T02:04:08.991Z,15.80
2022-09-12T02:06:42.517Z,15.80
2022-09-12T02:09:15.706Z,15.80
2022-09-12T02:11:46.169Z,15.80
2022-09-12T02:14:19.104Z,15.80
2022-09-12T02:16:52.352Z,15.70
2022-09-12T02:19:24.525Z,15.70
2022-09-12T02:21:55.212Z,15.60
2022-09-12T02:24:26.318Z,15.50
2022-09-12T02:26:58.042Z,15.50
2022-09-12T02:29:26.074Z,15.40
2022-09-12T02:32:00.449Z,15.40
2022-09-12T02:34:34.199Z,15.40
2022-09-12T02:37:07.949Z,15.40
2022-09-12T02:39:36.941Z,15.50
2022-09-12T02:42:05.736Z,15.40
2022-09-12T02:44:36.820Z,15.40
2022-09-12T02:47:09.888Z,15.30
2022-09-12T02:49:38.162Z,15.30
2022-09-12T02:52:06.976Z,15.20
2022-09-12T02:54:35.654Z,15.20
2022-09-12T02:57:05.031Z,15.30
2022-09-12T02:59:33.326Z,15.30
2022-09-12T03:02:25.523Z,15.30
2022-09-12T03:05:10.253Z,15.30
2022-09-12T03:08:00.161Z,15.20
2022-09-12T03:10:38.493Z,15.20
2022-09-12T03:13:16.230Z,15.10
2022-09-12T03:15:52.874Z,15.20
2022-09-12T03:18:44.021Z,15.20
2022-09-12T03:21:19.126Z,15.20
2022-09-12T03:23:55.151Z,15.20
2022-09-12T03:26:29.494Z,15.20
2022-09-12T03:28:59.355Z,15.20
2022-09-12T03:31:27.705Z,15.20
2022-09-12T03:33:56.999Z,15.20
2022-09-12T03:36:26.968Z,15.20
2022-09-12T03:38:54.941Z,15.10
2022-09-12T03:41:23.192Z,15.10
2022-09-12T03:43:51.326Z,15.20
2022-09-12T03:46:19.305Z,15.10
2022-09-12T03:48:47.355Z,15.20
2022-09-12T03:51:16.769Z,15.10
2022-09-12T03:53:44.778Z,15.00
2022-09-12T03:56:14.914Z,15.10
2022-09-12T03:58:42.943Z,15.10
2022-09-12T04:01:12.720Z,15.10
2022-09-12T04:03:41.298Z,15.10
2022-09-12T04:06:10.937Z,15.10
2022-09-12T04:08:40.397Z,15.10
2022-09-12T04:11:12.033Z,15.10
2022-09-12T04:13:41.408Z,15.10
2022-09-12T04:16:09.676Z,15.00
2022-09-12T04:18:38.063Z,15.10
2022-09-12T04:21:11.697Z,15.10
2022-09-12T04:23:41.088Z,15.10
2022-09-12T04:26:09.423Z,15.10
2022-09-12T04:28:38.916Z,15.10
2022-09-12T04:31:09.085Z,15.10
2022-09-12T04:33:37.693Z,15.10
2022-09-12T04:36:07.817Z,15.10
2022-09-12T04:38:37.072Z,15.10
2022-09-12T04:41:13.573Z,15.10
2022-09-12T04:43:42.395Z,15.10
2022-09-12T04:46:12.398Z,15.10
2022-09-12T04:48:40.967Z,15.00
2022-09-12T04:51:10.988Z,15.00
2022-09-12T04:53:39.063Z,15.00
2022-09-12T04:56:09.020Z,15.00
2022-09-12T04:58:39.413Z,14.90
2022-09-12T05:01:09.539Z,14.90
2022-09-12T05:03:38.957Z,14.90
2022-09-12T05:06:09.612Z,14.90
2022-09-12T05:08:37.657Z,15.00
2022-09-12T05:11:07.414Z,15.00
2022-09-12T05:13:35.787Z,15.00
2022-09-12T05:16:06.634Z,15.10
2022-09-12T05:18:36.297Z,15.00
2022-09-12T05:21:06.574Z,15.10
2022-09-12T05:23:35.001Z,15.10
2022-09-12T05:26:04.103Z,15.10
2022-09-12T05:28:34.187Z,15.20
2022-09-12T05:31:03.330Z,15.10
2022-09-12T05:33:33.773Z,15.10
2022-09-12T05:36:02.393Z,15.10
2022-09-12T05:38:30.353Z,15.20
2022-09-12T05:41:04.694Z,15.20
2022-09-12T05:43:33.007Z,15.30
2022-09-12T05:46:04.977Z,15.30
2022-09-12T05:48:34.396Z,15.40
2022-09-12T05:51:03.459Z,15.40
2022-09-12T05:53:32.110Z,15.50
2022-09-12T05:56:05.138Z,15.60
2022-09-12T05:58:33.198Z,15.80
2022-09-12T06:01:05.694Z,15.90
2022-09-12T06:03:35.584Z,15.90
2022-09-12T06:06:05.181Z,16.00
2022-09-12T06:08:34.226Z,16.10
2022-09-12T06:11:03.654Z,16.20
2022-09-12T06:13:32.839Z,16.30
2022-09-12T06:16:08.326Z,16.40
2022-09-12T06:18:38.965Z,16.50
2022-09-12T06:21:09.316Z,16.40
2022-09-12T06:23:37.829Z,16.50
2022-09-12T06:26:07.711Z,16.40
2022-09-12T06:28:38.118Z,16.40
2022-09-12T06:31:07.538Z,16.40
2022-09-12T06:33:38.415Z,16.40
2022-09-12T06:36:12.051Z,16.40
2022-09-12T06:38:40.942Z,16.40
2022-09-12T06:41:11.339Z,16.40
2022-09-12T06:43:39.913Z,16.40
2022-09-12T06:46:08.419Z,16.40
2022-09-12T06:48:41.753Z,16.40
2022-09-12T06:51:13.314Z,16.50
2022-09-12T06:53:41.662Z,16.50
2022-09-12T06:56:12.577Z,16.60
2022-09-12T06:58:41.742Z,16.60
2022-09-12T07:01:11.318Z,16.70
2022-09-12T07:03:41.390Z,16.70
2022-09-12T07:06:11.823Z,16.70
2022-09-12T07:08:41.068Z,16.80
2022-09-12T07:11:14.494Z,16.80
2022-09-12T07:13:43.620Z,16.80
2022-09-12T07:16:17.265Z,16.80
2022-09-12T07:18:51.603Z,16.90
2022-09-12T07:21:19.835Z,17.00
2022-09-12T07:23:48.279Z,17.10
2022-09-12T07:26:17.415Z,17.10
2022-09-12T07:28:45.853Z,17.20
2022-09-12T07:31:17.009Z,17.20
2022-09-12T07:33:45.334Z,17.20
2022-09-12T07:36:16.447Z,17.30
2022-09-12T07:38:45.768Z,17.30
2022-09-12T07:41:14.642Z,17.30
2022-09-12T07:43:42.945Z,17.30
2022-09-12T07:46:11.641Z,17.40
2022-09-12T07:48:40.916Z,17.50
2022-09-12T07:51:10.854Z,17.60
2022-09-12T07:53:43.235Z,17.60
2022-09-12T07:56:12.777Z,17.80
2022-09-12T07:58:42.181Z,17.80
2022-09-12T08:01:12.940Z,17.90
2022-09-12T08:03:42.048Z,18.10
2022-09-12T08:06:12.031Z,18.10
2022-09-12T08:08:41.558Z,18.20
2022-09-12T08:11:12.077Z,18.20
2022-09-12T08:13:41.362Z,18.20
2022-09-12T08:16:12.932Z,18.30
2022-09-12T08:18:41.494Z,18.20
2022-09-12T08:21:13.587Z,18.30
2022-09-12T08:23:43.032Z,18.30
2022-09-12T08:26:12.639Z,18.30
2022-09-12T08:28:41.724Z,18.30
2022-09-12T08:31:11.861Z,18.40
2022-09-12T08:33:40.484Z,18.40
2022-09-12T08:36:11.670Z,18.40
2022-09-12T08:38:42.942Z,18.40
2022-09-12T08:41:21.077Z,18.40
2022-09-12T08:44:04.325Z,18.50
2022-09-12T08:46:39.660Z,18.60
2022-09-12T08:49:12.214Z,18.60
2022-09-12T08:51:40.883Z,18.70
2022-09-12T08:54:27.165Z,18.70
2022-09-12T08:56:58.865Z,18.80
2022-09-12T08:59:27.073Z,18.90
2022-09-12T09:01:58.949Z,19.00
2022-09-12T09:04:38.962Z,19.00
2022-09-12T09:07:25.917Z,19.10
2022-09-12T09:10:09.273Z,19.10
2022-09-12T09:12:44.042Z,19.20
2022-09-12T09:15:24.828Z,19.30
2022-09-12T09:17:56.734Z,19.40
2022-09-12T09:20:31.489Z,19.50
2022-09-12T09:23:04.729Z,19.50
2022-09-12T09:25:43.683Z,19.60
2022-09-12T09:28:18.448Z,19.60
2022-09-12T09:30:46.912Z,19.70
2022-09-12T09:33:23.434Z,19.70
2022-09-12T09:36:03.743Z,19.80
2022-09-12T09:38:42.268Z,19.90
2022-09-12T09:41:36.183Z,19.90
2022-09-12T09:44:04.865Z,20.00
2022-09-12T09:46:33.870Z,20.10
2022-09-12T09:49:03.863Z,20.10
2022-09-12T09:51:36.573Z,20.20
2022-09-12T09:54:14.139Z,20.20
2022-09-12T09:56:44.259Z,20.40
2022-09-12T09:59:13.673Z,20.50
2022-09-12T10:01:54.834Z,20.70
2022-09-12T10:04:24.601Z,20.70
2022-09-12T10:06:54.429Z,20.80
2022-09-12T10:09:25.554Z,20.80
2022-09-12T10:11:56.456Z,20.90
2022-09-12T10:14:30.963Z,21.00
2022-09-12T10:16:59.531Z,21.20
2022-09-12T10:19:37.269Z,21.30
2022-09-12T10:22:06.543Z,21.40
2022-09-12T10:24:38.885Z,21.40
2022-09-12T10:27:15.087Z,21.50
2022-09-12T10:29:48.504Z,21.60
2022-09-12T10:32:30.395Z,21.60
2022-09-12T10:35:02.030Z,21.60
2022-09-12T10:37:33.701Z,21.70
2022-09-12T10:40:04.204Z,21.80
2022-09-12T10:42:51.389Z,21.80
2022-09-12T10:45:22.050Z,21.90
2022-09-12T10:47:50.867Z,21.90
2022-09-12T10:50:26.106Z,21.90
2022-09-12T10:52:54.289Z,22.00
2022-09-12T10:55:29.580Z,22.00
2022-09-12T10:58:26.181Z,22.10
2022-09-12T11:01:01.671Z,22.10
2022-09-12T11:03:44.444Z,22.20
2022-09-12T11:06:17.887Z,22.30
2022-09-12T11:08:59.355Z,22.40
2022-09-12T11:11:41.947Z,22.50
2022-09-12T11:14:23.771Z,22.60
2022-09-12T11:17:03.160Z,22.70
2022-09-12T11:19:48.091Z,22.70
2022-09-12T11:22:31.510Z,22.70
2022-09-12T11:25:13.272Z,22.70
2022-09-12T11:27:55.974Z,22.70
2022-09-12T11:30:25.296Z,22.80
2022-09-12T11:33:13.881Z,22.80
2022-09-12T11:35:49.771Z,22.90
2022-09-12T11:38:44.875Z,22.90
2022-09-12T11:41:19.976Z,23.00
2022-09-12T11:43:52.727Z,23.10
2022-09-12T11:46:30.899Z,23.20
2022-09-12T11:49:03.576Z,23.20
2022-09-12T11:51:36.616Z,23.20
2022-09-12T11:54:13.159Z,23.20
2022-09-12T11:56:46.457Z,23.20
2022-09-12T11:59:25.747Z,23.30
2022-09-12T12:01:59.994Z,23.30
2022-09-12T12:04:38.128Z,23.40
2022-09-12T12:07:08.427Z,23.40
2022-09-12T12:09:37.078Z,23.50
2022-09-12T12:12:09.312Z,23.60
2022-09-12T12:14:43.484Z,23.70
2022-09-12T12:17:18.429Z,23.80
2022-09-12T12:19:48.185Z,23.90
2022-09-12T12:22:19.067Z,23.90
2022-09-12T12:25:07.455Z,24.00
2022-09-12T12:27:54.016Z,24.00
2022-09-12T12:31:03.713Z,24.10
2022-09-12T12:33:56.507Z,24.20
2022-09-12T12:36:36.622Z,24.30
2022-09-12T12:39:47.993Z,24.40
2022-09-12T12:43:04.621Z,24.50
2022-09-12T12:46:02.930Z,24.60
2022-09-12T12:49:03.802Z,24.70
2022-09-12T12:51:40.951Z,24.80
2022-09-12T12:54:32.140Z,25.00
2022-09-12T12:57:20.777Z,25.00
2022-09-12T12:59:51.562Z,25.00
2022-09-12T13:02:26.289Z,25.00
2022-09-12T13:04:55.766Z,25.10
2022-09-12T13:07:32.370Z,25.30
2022-09-12T13:10:02.185Z,25.30
2022-09-12T13:12:34.740Z,25.50
2022-09-12T13:15:04.373Z,25.60
2022-09-12T13:17:38.437Z,25.70
2022-09-12T13:20:28.926Z,25.70
2022-09-12T13:22:59.482Z,25.90
2022-09-12T13:25:31.625Z,26.00
2022-09-12T13:28:02.088Z,26.00
2022-09-12T13:30:32.758Z,26.10
2022-09-12T13:33:15.913Z,26.30
2022-09-12T13:36:11.569Z,26.50
2022-09-12T13:38:52.649Z,26.60
2022-09-12T13:41:33.989Z,26.70
2022-09-12T13:44:03.446Z,26.80
2022-09-12T13:46:34.824Z,27.00
2022-09-12T13:49:11.659Z,27.10
2022-09-12T13:51:39.797Z,27.20
2022-09-12T13:54:09.449Z,27.30
2022-09-12T13:56:48.493Z,27.50
2022-09-12T13:59:16.751Z,27.60
2022-09-12T14:01:46.303Z,27.70
2022-09-12T14:04:36.538Z,27.80
2022-09-12T14:07:14.414Z,27.90
2022-09-12T14:09:45.642Z,28.00
2022-09-12T14:12:22.239Z,27.90
2022-09-12T14:14:52.604Z,27.90
2022-09-12T14:17:29.388Z,28.00
2022-09-12T14:19:59.407Z,28.20
2022-09-12T14:22:29.751Z,28.60
2022-09-12T14:24:59.932Z,29.30
2022-09-12T14:27:31.406Z,30.00
2022-09-12T14:30:07.435Z,30.50
2022-09-12T14:32:36.079Z,31.10
2022-09-12T14:35:21.318Z,31.90
2022-09-12T14:37:52.406Z,32.70
2022-09-12T14:40:23.872Z,33.20
2022-09-12T14:42:55.989Z,33.30
2022-09-12T14:45:29.897Z,33.50
2022-09-12T14:47:59.637Z,33.30
2022-09-12T14:50:30.762Z,33.60
2022-09-12T14:53:07.884Z,34.00
2022-09-12T14:55:45.448Z,34.40
2022-09-12T14:58:23.571Z,34.30
2022-09-12T15:01:02.091Z,34.00
2022-09-12T15:03:33.339Z,33.60
2022-09-12T15:06:03.972Z,33.30
2022-09-12T15:08:33.180Z,33.10
2022-09-12T15:11:02.532Z,32.80
2022-09-12T15:13:39.618Z,32.10
2022-09-12T15:16:11.114Z,31.10
2022-09-12T15:18:39.732Z,29.90
2022-09-12T15:21:09.157Z,29.10
2022-09-12T15:23:40.421Z,28.50
2022-09-12T15:26:12.836Z,28.00
2022-09-12T15:28:41.146Z,27.60
2022-09-12T15:31:16.681Z,27.30
2022-09-12T15:33:44.694Z,27.10
2022-09-12T15:36:16.836Z,27.00
2022-09-12T15:38:46.011Z,26.80
2022-09-12T15:41:18.498Z,26.70
2022-09-12T15:43:47.518Z,26.60
2022-09-12T15:46:17.419Z,26.60
2022-09-12T15:48:45.407Z,26.50
2022-09-12T15:51:15.650Z,26.40
2022-09-12T15:53:44.724Z,26.30
2022-09-12T15:56:13.171Z,26.30
2022-09-12T15:58:57.198Z,26.20
2022-09-12T16:01:27.543Z,26.10
2022-09-12T16:03:55.697Z,26.10
2022-09-12T16:06:23.931Z,26.10
2022-09-12T16:08:52.026Z,26.00
2022-09-12T16:11:22.770Z,26.00
2022-09-12T16:13:53.248Z,25.90
2022-09-12T16:16:21.593Z,25.90
2022-09-12T16:18:49.791Z,25.90
2022-09-12T16:21:18.222Z,25.80
2022-09-12T16:23:47.241Z,25.80
2022-09-12T16:26:16.011Z,25.70
2022-09-12T16:28:44.469Z,25.70
2022-09-12T16:31:15.138Z,25.70
2022-09-12T16:33:43.211Z,25.60
2022-09-12T16:36:13.243Z,25.60
2022-09-12T16:38:45.111Z,25.50
2022-09-12T16:41:14.138Z,25.40
2022-09-12T16:43:43.233Z,25.40
2022-09-12T16:46:15.854Z,25.30
2022-09-12T16:48:49.588Z,25.30
2022-09-12T16:51:22.270Z,25.20
2022-09-12T16:53:51.111Z,25.20
2022-09-12T16:56:19.339Z,25.10
2022-09-12T16:58:47.910Z,25.10
2022-09-12T17:01:19.349Z,25.00
2022-09-12T17:03:47.430Z,25.00
2022-09-12T17:06:18.059Z,25.00
2022-09-12T17:08:47.517Z,25.00
2022-09-12T17:11:17.357Z,24.90
2022-09-12T17:14:03.739Z,24.90
2022-09-12T17:16:35.691Z,24.80
2022-09-12T17:19:03.845Z,24.70
2022-09-12T17:21:32.206Z,24.70
2022-09-12T17:24:00.439Z,24.60
2022-09-12T17:26:29.351Z,24.60
2022-09-12T17:28:57.426Z,24.50
2022-09-12T17:31:26.493Z,24.50
2022-09-12T17:33:58.895Z,24.50
2022-09-12T17:36:28.055Z,24.40
2022-09-12T17:38:56.261Z,24.30
2022-09-12T17:41:26.417Z,24.30
2022-09-12T17:43:57.225Z,24.20
2022-09-12T17:46:28.544Z,24.10
2022-09-12T17:49:00.890Z,24.10
2022-09-12T17:51:30.748Z,24.00
2022-09-12T17:54:01.271Z,23.90
2022-09-12T17:56:30.943Z,23.90
2022-09-12T17:59:00.223Z,23.80
2022-09-12T18:01:47.257Z,23.80
2022-09-12T18:04:16.891Z,23.80
2022-09-12T18:06:48.079Z,23.80
2022-09-12T18:09:19.562Z,23.70
2022-09-12T18:11:48.379Z,23.60
2022-09-12T18:14:17.222Z,23.60
2022-09-12T18:16:45.993Z,23.50
2022-09-12T18:19:14.728Z,23.40
2022-09-12T18:21:44.365Z,23.40
2022-09-12T18:24:12.906Z,23.40
2022-09-12T18:26:40.986Z,23.30
2022-09-12T18:29:09.066Z,23.20
2022-09-12T18:31:37.179Z,23.10
2022-09-12T18:34:06.167Z,23.10
2022-09-12T18:36:34.120Z,23.10
2022-09-12T18:39:03.492Z,23.10
2022-09-12T18:41:31.508Z,23.00
2022-09-12T18:44:01.195Z,23.00
2022-09-12T18:46:31.159Z,23.00
2022-09-12T18:49:00.343Z,22.90
2022-09-12T18:51:31.397Z,22.80
2022-09-12T18:54:01.221Z,22.80
2022-09-12T18:56:32.925Z,22.80
2022-09-12T18:59:02.062Z,22.70
2022-09-12T19:01:31.594Z,22.70
2022-09-12T19:04:00.848Z,22.60
2022-09-12T19:06:30.873Z,22.60
2022-09-12T19:09:03.853Z,22.60
2022-09-12T19:11:38.110Z,22.50
2022-09-12T19:14:07.231Z,22.50
2022-09-12T19:16:35.924Z,22.50
2022-09-12T19:19:04.111Z,22.50
2022-09-12T19:21:33.390Z,22.40
2022-09-12T19:24:02.680Z,22.40
2022-09-12T19:26:31.013Z,22.30
2022-09-12T19:29:02.449Z,22.30
2022-09-12T19:31:31.260Z,22.30
2022-09-12T19:34:01.838Z,22.30
2022-09-12T19:36:47.292Z,22.30
2022-09-12T19:39:17.055Z,22.20
2022-09-12T19:41:45.226Z,22.10
2022-09-12T19:44:14.792Z,22.10
2022-09-12T19:46:42.943Z,22.10
2022-09-12T19:49:12.637Z,22.00
2022-09-12T19:51:40.950Z,22.10
2022-09-12T19:54:09.083Z,22.10
2022-09-12T19:56:37.080Z,22.00
2022-09-12T19:59:05.124Z,22.00
2022-09-12T20:01:36.940Z,21.90
2022-09-12T20:04:05.558Z,21.90
2022-09-12T20:06:34.019Z,21.90
2022-09-12T20:09:02.008Z,21.90
2022-09-12T20:11:30.002Z,21.90
2022-09-12T20:13:58.021Z,21.80
2022-09-12T20:16:29.223Z,21.80
2022-09-12T20:19:00.419Z,21.70
2022-09-12T20:21:31.616Z,21.60
2022-09-12T20:24:05.030Z,21.50
2022-09-12T20:26:34.155Z,21.50
2022-09-12T20:29:02.385Z,21.50
2022-09-12T20:31:31.109Z,21.50
2022-09-12T20:34:00.582Z,21.50
2022-09-12T20:36:28.843Z,21.50
2022-09-12T20:38:59.725Z,21.40
2022-09-12T20:41:29.510Z,21.30
2022-09-12T20:43:58.414Z,21.30
2022-09-12T20:46:28.301Z,21.30
2022-09-12T20:48:56.964Z,21.20
2022-09-12T20:51:27.500Z,21.20
2022-09-12T20:53:56.353Z,21.20
2022-09-12T20:56:26.610Z,21.20
2022-09-12T20:58:55.658Z,21.20
2022-09-12T21:01:24.412Z,21.20
2022-09-12T21:03:53.025Z,21.20
2022-09-12T21:06:21.777Z,21.10
2022-09-12T21:08:51.913Z,21.10
2022-09-12T21:11:21.054Z,21.00
2022-09-12T21:13:49.238Z,21.00
2022-09-12T21:16:18.982Z,21.00
2022-09-12T21:18:47.481Z,21.00
2022-09-12T21:21:16.869Z,20.90
2022-09-12T21:23:44.814Z,20.90
2022-09-12T21:26:14.173Z,20.80
2022-09-12T21:28:42.132Z,20.80
2022-09-12T21:31:10.302Z,20.80
2022-09-12T21:33:38.374Z,20.70
2022-09-12T21:36:07.665Z,20.70
2022-09-12T21:38:35.900Z,20.70
2022-09-12T21:41:05.711Z,20.70
2022-09-12T21:43:35.194Z,20.70
2022-09-12T21:46:04.343Z,20.60
2022-09-12T21:48:32.757Z,20.60
2022-09-12T21:51:01.397Z,20.60
2022-09-12T21:53:29.704Z,20.60
2022-09-12T21:56:02.285Z,20.60
2022-09-12T21:58:30.446Z,20.60
2022-09-12T22:01:00.918Z,20.60
2022-09-12T22:03:29.408Z,20.50
2022-09-12T22:06:01.875Z,20.50
2022-09-12T22:08:31.515Z,20.50
2022-09-12T22:11:00.839Z,20.50
2022-09-12T22:13:32.030Z,20.40
2022-09-12T22:16:03.181Z,20.30
2022-09-12T22:18:33.875Z,20.30
2022-09-12T22:21:03.593Z,20.30
2022-09-12T22:23:49.287Z,20.30
2022-09-12T22:26:17.957Z,20.30
2022-09-12T22:28:47.238Z,20.20
2022-09-12T22:31:17.356Z,20.20
2022-09-12T22:33:45.875Z,20.20
2022-09-12T22:36:14.159Z,20.20
2022-09-12T22:38:42.227Z,20.10
2022-09-12T22:41:13.125Z,20.10
2022-09-12T22:43:41.796Z,20.00
2022-09-12T22:46:12.038Z,20.00
2022-09-12T22:48:42.762Z,20.00
2022-09-12T22:51:11.495Z,20.00
2022-09-12T22:53:39.645Z,20.00
2022-09-12T22:56:08.484Z,19.90
2022-09-12T22:58:37.753Z,19.90
2022-09-12T23:01:07.003Z,19.80
2022-09-12T23:03:36.330Z,19.70
2022-09-12T23:06:06.766Z,19.70
2022-09-12T23:08:36.114Z,19.60
2022-09-12T23:11:05.336Z,19.60
2022-09-12T23:13:33.910Z,19.60
2022-09-12T23:16:03.455Z,19.60
2022-09-12T23:18:31.639Z,19.60
2022-09-12T23:21:00.950Z,19.50
2022-09-12T23:23:30.597Z,19.40
2022-09-12T23:26:06.418Z,19.30
2022-09-12T23:28:35.075Z,19.30
2022-09-12T23:31:03.735Z,19.40
2022-09-12T23:33:33.059Z,19.30
2022-09-12T23:36:01.730Z,19.30
2022-09-12T23:38:32.142Z,19.40
2022-09-12T23:41:01.141Z,19.40
2022-09-12T23:43:29.440Z,19.50
2022-09-12T23:45:57.595Z,19.40
2022-09-12T23:48:25.588Z,19.40
2022-09-12T23:50:53.633Z,19.30
2022-09-12T23:53:22.516Z,19.40
2022-09-12T23:55:52.095Z,19.30
2022-09-12T23:58:21.524Z,19.20
